Sandflaesa — LM5781 — position and weather

sailwx.info

Track history (hours):
 
Tides and Currents Weather Stations Pressure Air Temp Water Temp Dewpoint Dewpoint Depression Visibility Wind Speed Wind Dir Waves Ship Positions

Sandflaesa

Last reported at 2014-Dec-10 20:26 UTC. Time now 2014-Dec-19 06:30 UTC.
Position N 66°25' E 012°34'.
Warning: this ship's position is 8 days out of date.

Length 11 m.

Type: Fishing. MMSI: 257304820.

Date/timePositionNaut miles runAvg speedWind from/ knotsBaromVisibWave heightAir tempDewpointWater temp
2014-Dec-10 20:26N 66°25' E 012°34'4 0.1
2014-Dec-09 07:15N 66°22' E 012°41'6 7.8
2014-Dec-09 06:33N 66°27' E 012°32'64 1.5
2014-Dec-07 10:33N 67°15' E 014°17'3 2.7
2014-Dec-07 09:33N 67°17' E 014°22'0 0.0
2014-Dec-07 08:33N 67°17' E 014°22'0 0.0
2014-Dec-07 07:33N 67°17' E 014°22'0 0.0
2014-Dec-07 06:33N 67°17' E 014°22'0 0.0
2014-Dec-07 05:33N 67°17' E 014°22'0 0.0
2014-Dec-07 04:33N 67°17' E 014°22'0 0.0
2014-Dec-07 03:33N 67°17' E 014°22'0 0.0
2014-Dec-07 02:33N 67°17' E 014°22'0 0.0
2014-Dec-07 01:33N 67°17' E 014°22'0 0.0
2014-Dec-07 00:33N 67°17' E 014°22'0 0.0
2014-Dec-06 23:33N 67°17' E 014°22'0 0.0
2014-Dec-06 22:31N 67°17' E 014°22'0 0.0
2014-Dec-06 21:34N 67°17' E 014°22'0 0.0
2014-Dec-06 20:33N 67°17' E 014°22'0 0.0
2014-Dec-06 19:33N 67°17' E 014°22'0 0.0
2014-Dec-06 18:33N 67°17' E 014°22'0 0.0
2014-Dec-06 17:33N 67°17' E 014°22'0 0.0
2014-Dec-06 16:33N 67°17' E 014°22'0 0.0
2014-Dec-06 15:33N 67°17' E 014°22'0 0.0
2014-Dec-06 14:33N 67°17' E 014°22'0 0.0
2014-Dec-06 13:33N 67°17' E 014°22'3 3.0
2014-Dec-06 12:33N 67°20' E 014°25'  
Track history (hours):
 
Tides and Currents Weather Stations Pressure Air Temp Water Temp Dewpoint Dewpoint Depression Visibility Wind Speed Wind Dir Waves Ship Positions

Sandflaesa

Last reported at 2014-Dec-10 20:26 UTC. Time now 2014-Dec-19 06:30 UTC.
Position N 66°25' E 012°34'.
Warning: this ship's position is 8 days out of date.

Length 11 m.

Type: Fishing. MMSI: 257304820.

Date/timePositionNaut miles runAvg speedWind from/ knotsBaromVisibWave heightAir tempDewpointWater temp
2014-Dec-10 20:26N 66°25' E 012°34'4 0.1
2014-Dec-09 07:15N 66°22' E 012°41'6 7.8
2014-Dec-09 06:33N 66°27' E 012°32'64 1.5
2014-Dec-07 10:33N 67°15' E 014°17'3 2.7
2014-Dec-07 09:33N 67°17' E 014°22'0 0.0
2014-Dec-07 08:33N 67°17' E 014°22'0 0.0
2014-Dec-07 07:33N 67°17' E 014°22'0 0.0
2014-Dec-07 06:33N 67°17' E 014°22'0 0.0
2014-Dec-07 05:33N 67°17' E 014°22'0 0.0
2014-Dec-07 04:33N 67°17' E 014°22'0 0.0
2014-Dec-07 03:33N 67°17' E 014°22'0 0.0
2014-Dec-07 02:33N 67°17' E 014°22'0 0.0
2014-Dec-07 01:33N 67°17' E 014°22'0 0.0
2014-Dec-07 00:33N 67°17' E 014°22'0 0.0
2014-Dec-06 23:33N 67°17' E 014°22'0 0.0
2014-Dec-06 22:31N 67°17' E 014°22'0 0.0
2014-Dec-06 21:34N 67°17' E 014°22'0 0.0
2014-Dec-06 20:33N 67°17' E 014°22'0 0.0
2014-Dec-06 19:33N 67°17' E 014°22'0 0.0
2014-Dec-06 18:33N 67°17' E 014°22'0 0.0
2014-Dec-06 17:33N 67°17' E 014°22'0 0.0
2014-Dec-06 16:33N 67°17' E 014°22'0 0.0
2014-Dec-06 15:33N 67°17' E 014°22'0 0.0
2014-Dec-06 14:33N 67°17' E 014°22'0 0.0
2014-Dec-06 13:33N 67°17' E 014°22'3 3.0
2014-Dec-06 12:33N 67°20' E 014°25'  

Dump ship's entire track history